createdAt,value
2022-08-11T00:00:01.100Z,17.06
2022-08-11T00:02:36.951Z,17.02
2022-08-11T00:05:09.512Z,16.95
2022-08-11T00:07:51.396Z,16.84
2022-08-11T00:10:29.639Z,16.86
2022-08-11T00:12:59.395Z,16.89
2022-08-11T00:15:36.866Z,16.85
2022-08-11T00:18:04.216Z,16.81
2022-08-11T00:20:33.329Z,16.79
2022-08-11T00:23:19.889Z,16.83
2022-08-11T00:25:48.990Z,16.84
2022-08-11T00:28:30.758Z,16.86
2022-08-11T00:31:01.462Z,16.87
2022-08-11T00:33:41.152Z,16.85
2022-08-11T00:36:14.919Z,16.85
2022-08-11T00:38:46.456Z,16.78
2022-08-11T00:41:39.321Z,16.72
2022-08-11T00:44:38.981Z,16.72
2022-08-11T00:47:28.454Z,16.70
2022-08-11T00:50:17.320Z,16.68
2022-08-11T00:52:52.847Z,16.67
2022-08-11T00:55:39.562Z,16.66
2022-08-11T00:58:37.809Z,16.64
2022-08-11T01:01:16.432Z,16.58
2022-08-11T01:04:12.548Z,16.51
2022-08-11T01:06:41.787Z,16.47
2022-08-11T01:09:42.032Z,16.44
2022-08-11T01:12:56.487Z,16.29
2022-08-11T01:15:41.231Z,16.16
2022-08-11T01:18:50.427Z,16.07
2022-08-11T01:21:34.884Z,15.98
2022-08-11T01:24:38.732Z,15.86
2022-08-11T01:27:23.397Z,15.73
2022-08-11T01:30:19.104Z,15.69
2022-08-11T01:33:04.223Z,15.62
2022-08-11T01:35:55.578Z,15.51
2022-08-11T01:38:55.347Z,15.43
2022-08-11T01:42:08.578Z,15.45
2022-08-11T01:45:03.676Z,15.45
2022-08-11T01:47:52.861Z,15.42
2022-08-11T01:50:54.179Z,15.33
2022-08-11T01:53:42.440Z,15.25
2022-08-11T01:56:40.310Z,15.18
2022-08-11T01:59:36.978Z,15.16
2022-08-11T02:02:48.193Z,15.12
2022-08-11T02:05:23.275Z,15.08
2022-08-11T02:08:08.524Z,15.06
2022-08-11T02:11:06.274Z,15.07
2022-08-11T02:13:49.116Z,15.04
2022-08-11T02:16:37.059Z,15.02
2022-08-11T02:20:10.720Z,14.96
2022-08-11T02:23:14.293Z,14.92
2022-08-11T02:26:07.686Z,14.90
2022-08-11T02:29:00.325Z,14.92
2022-08-11T02:32:25.553Z,14.92
2022-08-11T02:35:01.418Z,14.93
2022-08-11T02:37:30.884Z,14.98
2022-08-11T02:40:20.858Z,14.94
2022-08-11T02:43:03.044Z,14.89
2022-08-11T02:45:37.329Z,14.82
2022-08-11T02:48:28.625Z,14.80
2022-08-11T02:51:21.919Z,14.81
2022-08-11T02:54:21.185Z,14.79
2022-08-11T02:57:17.492Z,14.76
2022-08-11T02:59:56.683Z,14.70
2022-08-11T03:02:31.384Z,14.64
2022-08-11T03:05:03.907Z,14.60
2022-08-11T03:07:56.459Z,14.56
2022-08-11T03:10:28.420Z,14.52
2022-08-11T03:13:28.872Z,14.47
2022-08-11T03:16:37.701Z,14.41
2022-08-11T03:19:23.078Z,14.43
2022-08-11T03:22:16.282Z,14.40
2022-08-11T03:25:01.484Z,14.36
2022-08-11T03:27:41.555Z,14.38
2022-08-11T03:30:15.470Z,14.34
2022-08-11T03:33:17.975Z,14.31
2022-08-11T03:36:15.811Z,14.28
2022-08-11T03:39:03.216Z,14.22
2022-08-11T03:42:04.106Z,14.17
2022-08-11T03:44:50.113Z,14.11
2022-08-11T03:47:52.459Z,14.07
2022-08-11T03:50:28.899Z,14.00
2022-08-11T03:53:12.265Z,13.94
2022-08-11T03:56:12.972Z,13.91
2022-08-11T03:59:17.153Z,13.86
2022-08-11T04:02:19.266Z,13.81
2022-08-11T04:05:27.053Z,13.76
2022-08-11T04:07:56.140Z,13.75
2022-08-11T04:10:50.482Z,13.74
2022-08-11T04:13:47.404Z,13.73
2022-08-11T04:16:29.010Z,13.66
2022-08-11T04:19:11.081Z,13.62
2022-08-11T04:22:07.110Z,13.62
2022-08-11T04:24:39.805Z,13.56
2022-08-11T04:27:54.366Z,13.52
2022-08-11T04:30:58.372Z,13.55
2022-08-11T04:34:01.574Z,13.58
2022-08-11T04:37:14.338Z,13.62
2022-08-11T04:40:11.911Z,13.64
2022-08-11T04:43:22.839Z,13.70
2022-08-11T04:46:00.914Z,13.75
2022-08-11T04:49:24.235Z,13.77
2022-08-11T04:52:38.166Z,13.84
2022-08-11T04:55:44.769Z,13.83
2022-08-11T04:59:03.787Z,13.83
2022-08-11T05:01:42.079Z,13.84
2022-08-11T05:05:04.582Z,13.87
2022-08-11T05:07:49.556Z,13.95
2022-08-11T05:10:20.056Z,14.06
2022-08-11T05:12:51.921Z,14.11
2022-08-11T05:15:51.520Z,14.15
2022-08-11T05:18:42.427Z,14.19
2022-08-11T05:21:29.236Z,14.24
2022-08-11T05:24:26.201Z,14.28
2022-08-11T05:27:13.917Z,14.44
2022-08-11T05:30:04.468Z,14.53
2022-08-11T05:33:03.449Z,14.62
2022-08-11T05:36:01.387Z,14.75
2022-08-11T05:38:53.726Z,14.90
2022-08-11T05:41:44.196Z,15.14
2022-08-11T05:44:36.412Z,15.35
2022-08-11T05:47:22.298Z,15.60
2022-08-11T05:50:13.533Z,15.82
2022-08-11T05:53:05.262Z,16.04
2022-08-11T05:56:02.322Z,16.34
2022-08-11T05:58:42.747Z,16.49
2022-08-11T06:01:11.807Z,16.62
2022-08-11T06:03:58.151Z,16.78
2022-08-11T06:06:26.636Z,16.84
2022-08-11T06:08:56.982Z,16.96
2022-08-11T06:11:43.499Z,17.08
2022-08-11T06:14:11.997Z,17.28
2022-08-11T06:16:41.510Z,17.38
2022-08-11T06:19:08.815Z,17.51
2022-08-11T06:21:36.174Z,17.61
2022-08-11T06:24:12.753Z,17.72
2022-08-11T06:27:01.700Z,17.88
2022-08-11T06:29:38.031Z,18.07
2022-08-11T06:32:15.638Z,18.26
2022-08-11T06:35:00.881Z,18.43
2022-08-11T06:37:42.196Z,18.67
2022-08-11T06:40:11.057Z,18.94
2022-08-11T06:42:53.452Z,19.19
2022-08-11T06:45:47.266Z,19.58
2022-08-11T06:48:20.804Z,19.99
2022-08-11T06:51:09.286Z,20.18
2022-08-11T06:53:38.664Z,20.37
2022-08-11T06:56:24.955Z,20.76
2022-08-11T06:59:10.212Z,23.20
2022-08-11T07:01:57.526Z,25.01
2022-08-11T07:04:39.477Z,25.94
2022-08-11T07:07:55.254Z,26.68
2022-08-11T07:11:16.403Z,27.11
2022-08-11T07:14:02.801Z,27.55
2022-08-11T07:16:31.424Z,28.61
2022-08-11T07:19:25.859Z,28.50
2022-08-11T07:22:13.583Z,28.76
2022-08-11T07:25:11.564Z,29.50
2022-08-11T07:28:06.674Z,29.95
2022-08-11T07:30:37.456Z,30.28
2022-08-11T07:33:05.345Z,30.68
2022-08-11T07:35:36.291Z,30.77
2022-08-11T07:38:12.518Z,30.83
2022-08-11T07:40:46.071Z,30.47
2022-08-11T07:43:13.732Z,30.68
2022-08-11T07:46:03.666Z,30.07
2022-08-11T07:48:49.899Z,30.64
2022-08-11T07:51:40.720Z,30.79
2022-08-11T07:54:16.578Z,30.99
2022-08-11T07:56:55.004Z,30.93
2022-08-11T07:59:59.990Z,31.00
2022-08-11T08:02:47.250Z,30.86
2022-08-11T08:05:34.712Z,30.54
2022-08-11T08:08:20.043Z,30.73
2022-08-11T08:11:05.334Z,30.86
2022-08-11T08:13:52.695Z,31.02
2022-08-11T08:16:39.436Z,31.66
2022-08-11T08:19:06.183Z,30.76
2022-08-11T08:21:32.839Z,31.26
2022-08-11T08:24:00.796Z,31.77
2022-08-11T08:26:51.662Z,31.68
2022-08-11T08:29:38.739Z,31.91
2022-08-11T08:32:06.820Z,31.79
2022-08-11T08:34:34.350Z,31.72
2022-08-11T08:37:00.946Z,31.28
2022-08-11T08:39:27.603Z,31.39
2022-08-11T08:41:57.152Z,31.94
2022-08-11T08:44:42.094Z,32.23
2022-08-11T08:47:15.087Z,32.85
2022-08-11T08:50:05.910Z,32.90
2022-08-11T08:52:43.659Z,33.05
2022-08-11T08:55:17.054Z,32.95
2022-08-11T08:57:45.160Z,33.20
2022-08-11T09:00:19.445Z,32.70
2022-08-11T09:02:49.581Z,33.23
2022-08-11T09:05:18.990Z,33.33
2022-08-11T09:07:51.028Z,33.19
2022-08-11T09:10:20.265Z,33.75
2022-08-11T09:12:48.138Z,33.64
2022-08-11T09:15:19.600Z,32.94
2022-08-11T09:17:53.391Z,33.35
2022-08-11T09:20:23.777Z,33.72
2022-08-11T09:24:07.338Z,33.97
2022-08-11T09:26:18.468Z,33.33
2022-08-11T09:28:46.855Z,33.82
2022-08-11T09:31:14.899Z,34.17
2022-08-11T09:33:43.358Z,34.52
2022-08-11T09:36:37.368Z,34.50
2022-08-11T09:39:24.358Z,34.49
2022-08-11T09:42:01.586Z,35.20
2022-08-11T09:44:49.829Z,35.33
2022-08-11T09:47:24.803Z,35.47
2022-08-11T09:49:56.342Z,35.21
2022-08-11T09:52:24.635Z,35.16
2022-08-11T09:54:52.339Z,34.72
2022-08-11T09:57:41.377Z,35.09
2022-08-11T10:00:14.063Z,35.45
2022-08-11T10:02:44.987Z,35.45
2022-08-11T10:05:35.249Z,35.59
2022-08-11T10:08:02.512Z,35.85
2022-08-11T10:10:29.872Z,36.07
2022-08-11T10:13:04.325Z,36.20
2022-08-11T10:15:35.419Z,36.57
2022-08-11T10:18:33.674Z,36.52
2022-08-11T10:21:13.266Z,37.10
2022-08-11T10:24:00.813Z,37.34
2022-08-11T10:26:52.243Z,37.22
2022-08-11T10:29:45.424Z,37.11
2022-08-11T10:32:58.716Z,36.94
2022-08-11T10:35:31.535Z,37.21
2022-08-11T10:38:07.729Z,37.30
2022-08-11T10:40:38.709Z,37.28
2022-08-11T10:43:13.418Z,37.27
2022-08-11T10:46:04.500Z,36.73
2022-08-11T10:48:36.371Z,37.69
2022-08-11T10:51:15.518Z,37.65
2022-08-11T10:54:20.501Z,37.99
2022-08-11T10:57:06.199Z,38.29
2022-08-11T10:59:34.373Z,37.75
2022-08-11T11:02:01.996Z,37.95
2022-08-11T11:04:39.624Z,38.02
2022-08-11T11:07:14.931Z,38.12
2022-08-11T11:09:47.466Z,38.61
2022-08-11T11:12:46.992Z,38.62
2022-08-11T11:15:33.719Z,37.96
2022-08-11T11:18:06.208Z,38.03
2022-08-11T11:20:47.439Z,38.29
2022-08-11T11:23:22.607Z,38.24
2022-08-11T11:26:14.743Z,38.16
2022-08-11T11:29:25.208Z,38.60
2022-08-11T11:31:59.547Z,38.62
2022-08-11T11:34:54.079Z,38.42
2022-08-11T11:37:22.992Z,39.42
2022-08-11T11:39:50.055Z,39.92
2022-08-11T11:42:18.365Z,38.87
2022-08-11T11:44:46.809Z,38.20
2022-08-11T11:47:14.292Z,37.74
2022-08-11T11:49:43.889Z,37.94
2022-08-11T11:52:21.826Z,39.55
2022-08-11T11:54:53.272Z,39.20
2022-08-11T11:57:40.256Z,38.21
2022-08-11T12:00:33.715Z,38.83
2022-08-11T12:03:11.438Z,39.57
2022-08-11T12:05:40.691Z,39.24
2022-08-11T12:08:15.709Z,39.83
2022-08-11T12:11:21.914Z,40.11
2022-08-11T12:13:53.032Z,40.19
2022-08-11T12:16:34.149Z,40.63
2022-08-11T12:19:08.781Z,40.09
2022-08-11T12:21:37.150Z,40.97
2022-08-11T12:24:23.112Z,40.23
2022-08-11T12:27:17.847Z,40.83
2022-08-11T12:29:50.053Z,40.31
2022-08-11T12:32:21.884Z,40.80
2022-08-11T12:34:50.058Z,40.25
2022-08-11T12:37:23.488Z,40.04
2022-08-11T12:40:42.537Z,39.77
2022-08-11T12:43:24.439Z,40.18
2022-08-11T12:46:09.012Z,40.03
2022-08-11T12:49:02.050Z,40.00
2022-08-11T12:52:11.694Z,37.11
2022-08-11T12:54:49.809Z,35.47
2022-08-11T12:57:41.513Z,34.73
2022-08-11T13:00:27.819Z,34.03
2022-08-11T13:03:13.812Z,33.70
2022-08-11T13:05:44.978Z,33.14
2022-08-11T13:08:14.278Z,32.88
2022-08-11T13:10:59.868Z,32.42
2022-08-11T13:13:55.312Z,32.14
2022-08-11T13:16:14.924Z,31.95
2022-08-11T13:18:43.859Z,31.68
2022-08-11T13:21:11.581Z,31.68
2022-08-11T13:24:01.265Z,31.73
2022-08-11T13:26:38.783Z,31.59
2022-08-11T13:29:18.474Z,31.49
2022-08-11T13:31:46.044Z,31.20
2022-08-11T13:34:13.201Z,31.06
2022-08-11T13:36:40.707Z,30.90
2022-08-11T13:39:07.781Z,30.89
2022-08-11T13:41:41.002Z,31.17
2022-08-11T13:44:15.861Z,31.22
2022-08-11T13:46:45.969Z,31.49
2022-08-11T13:49:17.142Z,31.16
2022-08-11T13:51:44.348Z,30.66
2022-08-11T13:54:22.609Z,30.49
2022-08-11T13:56:54.046Z,30.42
2022-08-11T13:59:24.007Z,30.57
2022-08-11T14:02:28.553Z,30.70
2022-08-11T14:04:56.103Z,30.71
2022-08-11T14:07:25.864Z,30.79
2022-08-11T14:09:59.321Z,30.95
2022-08-11T14:12:48.720Z,31.13
2022-08-11T14:15:16.762Z,30.85
2022-08-11T14:17:48.160Z,30.79
2022-08-11T14:20:39.737Z,30.89
2022-08-11T14:23:05.598Z,30.91
2022-08-11T14:25:59.674Z,31.06
2022-08-11T14:28:33.912Z,31.18
2022-08-11T14:31:05.224Z,30.92
2022-08-11T14:34:00.546Z,30.80
2022-08-11T14:36:21.469Z,31.20
2022-08-11T14:38:48.450Z,31.21
2022-08-11T14:41:34.298Z,31.15
2022-08-11T14:44:20.122Z,31.11
2022-08-11T14:47:05.581Z,31.19
2022-08-11T14:49:58.614Z,31.26
2022-08-11T14:52:38.303Z,31.13
2022-08-11T14:55:23.955Z,31.12
2022-08-11T14:57:55.614Z,30.86
2022-08-11T15:00:23.582Z,30.53
2022-08-11T15:03:09.138Z,30.25
2022-08-11T15:05:37.021Z,30.14
2022-08-11T15:08:03.895Z,30.14
2022-08-11T15:10:30.751Z,29.95
2022-08-11T15:12:57.691Z,30.03
2022-08-11T15:15:44.510Z,30.10
2022-08-11T15:18:17.487Z,30.44
2022-08-11T15:21:03.203Z,30.53
2022-08-11T15:23:49.011Z,30.52
2022-08-11T15:26:58.122Z,30.50
2022-08-11T15:29:49.221Z,30.02
2022-08-11T15:32:20.135Z,29.80
2022-08-11T15:35:09.853Z,29.81
2022-08-11T15:37:41.334Z,29.82
2022-08-11T15:40:33.798Z,29.93
2022-08-11T15:43:29.116Z,29.64
2022-08-11T15:46:02.343Z,29.80
2022-08-11T15:48:39.025Z,29.91
2022-08-11T15:51:11.771Z,30.01
2022-08-11T15:53:46.256Z,29.76
2022-08-11T15:56:26.359Z,29.73
2022-08-11T15:59:41.036Z,29.67
2022-08-11T16:02:31.406Z,29.62
2022-08-11T16:05:01.994Z,29.72
2022-08-11T16:07:32.563Z,29.84
2022-08-11T16:10:10.695Z,29.85
2022-08-11T16:13:03.601Z,30.01
2022-08-11T16:15:51.077Z,30.10
2022-08-11T16:18:20.994Z,29.91
2022-08-11T16:20:51.789Z,29.92
2022-08-11T16:23:19.539Z,30.14
2022-08-11T16:27:02.835Z,29.99
2022-08-11T16:28:36.263Z,29.88
2022-08-11T16:31:03.206Z,29.86
2022-08-11T16:33:49.533Z,29.90
2022-08-11T16:36:38.267Z,29.90
2022-08-11T16:39:07.110Z,29.61
2022-08-11T16:41:54.895Z,29.47
2022-08-11T16:44:42.507Z,29.50
2022-08-11T16:47:16.188Z,29.43
2022-08-11T16:49:52.838Z,29.48
2022-08-11T16:52:21.037Z,29.47
2022-08-11T16:54:47.996Z,29.45
2022-08-11T16:57:44.159Z,29.45
2022-08-11T17:00:14.800Z,29.24
2022-08-11T17:03:09.548Z,29.19
2022-08-11T17:05:57.252Z,29.13
2022-08-11T17:08:57.592Z,29.08
2022-08-11T17:11:47.568Z,28.83
2022-08-11T17:14:35.356Z,28.70
2022-08-11T17:17:05.949Z,28.55
2022-08-11T17:20:42.644Z,28.45
2022-08-11T17:22:41.391Z,28.57
2022-08-11T17:25:09.849Z,28.81
2022-08-11T17:27:38.946Z,28.82
2022-08-11T17:30:07.857Z,28.72
2022-08-11T17:33:02.213Z,28.54
2022-08-11T17:35:34.768Z,28.56
2022-08-11T17:38:07.923Z,28.30
2022-08-11T17:40:38.640Z,28.12
2022-08-11T17:43:26.994Z,27.99
2022-08-11T17:46:08.173Z,27.85
2022-08-11T17:48:47.891Z,27.79
2022-08-11T17:51:38.664Z,27.64
2022-08-11T17:54:25.830Z,27.61
2022-08-11T17:57:20.170Z,27.56
2022-08-11T17:59:52.064Z,27.42
2022-08-11T18:02:40.735Z,27.35
2022-08-11T18:05:12.755Z,27.26
2022-08-11T18:08:01.484Z,27.09
2022-08-11T18:10:49.342Z,26.93
2022-08-11T18:13:40.252Z,26.71
2022-08-11T18:16:26.644Z,26.65
2022-08-11T18:19:11.882Z,26.60
2022-08-11T18:22:02.720Z,26.39
2022-08-11T18:25:06.439Z,26.27
2022-08-11T18:27:54.300Z,26.12
2022-08-11T18:30:39.044Z,25.85
2022-08-11T18:36:38.448Z,25.54
2022-08-11T18:39:27.908Z,25.43
2022-08-11T18:42:28.755Z,25.28
2022-08-11T18:45:21.788Z,25.15
2022-08-11T18:48:11.635Z,25.04
2022-08-11T18:51:31.447Z,24.90
2022-08-11T18:54:15.987Z,24.68
2022-08-11T18:57:04.967Z,24.55
2022-08-11T18:59:54.213Z,24.42
2022-08-11T19:02:48.668Z,24.34
2022-08-11T19:06:35.578Z,24.26
2022-08-11T19:08:47.220Z,24.15
2022-08-11T19:11:33.571Z,24.05
2022-08-11T19:14:21.528Z,23.87
2022-08-11T19:17:09.519Z,23.70
2022-08-11T19:19:56.220Z,23.55
2022-08-11T19:22:42.599Z,23.36
2022-08-11T19:25:29.928Z,23.26
2022-08-11T19:28:16.292Z,23.18
2022-08-11T19:31:02.008Z,23.11
2022-08-11T19:34:00.204Z,23.01
2022-08-11T19:36:53.616Z,22.97
2022-08-11T19:39:40.316Z,22.91
2022-08-11T19:42:27.692Z,22.77
2022-08-11T19:45:14.632Z,22.64
2022-08-11T19:48:28.119Z,22.50
2022-08-11T19:51:05.752Z,22.38
2022-08-11T19:53:51.788Z,22.27
2022-08-11T19:56:37.154Z,22.18
2022-08-11T19:59:22.888Z,22.10
2022-08-11T20:02:13.772Z,22.04
2022-08-11T20:05:00.416Z,21.95
2022-08-11T20:07:46.752Z,21.89
2022-08-11T20:10:35.478Z,21.82
2022-08-11T20:13:24.480Z,21.76
2022-08-11T20:16:13.779Z,21.66
2022-08-11T20:19:00.615Z,21.60
2022-08-11T20:21:46.564Z,21.52
2022-08-11T20:24:33.906Z,21.50
2022-08-11T20:27:24.472Z,21.43
2022-08-11T20:30:11.121Z,21.34
2022-08-11T20:32:57.872Z,21.27
2022-08-11T20:35:43.652Z,21.23
2022-08-11T20:38:30.297Z,21.22
2022-08-11T20:41:16.465Z,21.16
2022-08-11T20:44:08.472Z,21.04
2022-08-11T20:46:57.467Z,21.04
2022-08-11T20:49:53.636Z,20.99
2022-08-11T20:52:47.350Z,20.90
2022-08-11T20:55:46.272Z,21.01
2022-08-11T21:01:45.315Z,21.07
2022-08-11T21:04:30.861Z,20.95
2022-08-11T21:10:29.752Z,20.98
2022-08-11T21:13:26.385Z,20.88
2022-08-11T21:16:25.926Z,20.72
2022-08-11T21:19:15.655Z,20.62
2022-08-11T21:22:03.542Z,20.58
2022-08-11T21:24:51.552Z,20.51
2022-08-11T21:27:40.291Z,20.44
2022-08-11T21:30:26.220Z,20.40
2022-08-11T21:33:11.888Z,20.34
2022-08-11T21:35:57.261Z,20.30
2022-08-11T21:38:43.478Z,20.26
2022-08-11T21:41:29.336Z,20.27
2022-08-11T21:44:15.688Z,20.24
2022-08-11T21:47:00.532Z,20.15
2022-08-11T21:49:48.377Z,20.13
2022-08-11T21:52:34.779Z,20.10
2022-08-11T21:55:19.997Z,20.05
2022-08-11T21:58:06.405Z,20.05
2022-08-11T22:00:52.154Z,20.05
2022-08-11T22:03:49.514Z,20.00
2022-08-11T22:06:36.450Z,20.03
2022-08-11T22:09:21.866Z,20.00
2022-08-11T22:12:34.481Z,19.97
2022-08-11T22:15:13.050Z,19.94
2022-08-11T22:17:58.242Z,19.92
2022-08-11T22:20:45.616Z,19.80
2022-08-11T22:23:36.264Z,19.77
2022-08-11T22:26:23.329Z,19.78
2022-08-11T22:29:09.688Z,19.81
2022-08-11T22:31:57.656Z,19.82
2022-08-11T22:34:52.668Z,19.82
2022-08-11T22:37:40.195Z,19.87
2022-08-11T22:40:27.367Z,19.87
2022-08-11T22:43:12.292Z,19.89
2022-08-11T22:45:57.664Z,19.83
2022-08-11T22:48:46.931Z,19.75
2022-08-11T22:51:33.166Z,19.70
2022-08-11T22:54:22.690Z,19.61
2022-08-11T22:57:08.500Z,19.46
2022-08-11T22:59:55.281Z,19.35
2022-08-11T23:02:40.858Z,19.36
2022-08-11T23:05:27.431Z,19.25
2022-08-11T23:08:15.117Z,19.16
2022-08-11T23:11:01.717Z,19.12
2022-08-11T23:13:49.521Z,19.07
2022-08-11T23:16:36.792Z,19.04
2022-08-11T23:20:00.329Z,19.00
2022-08-11T23:22:37.064Z,18.93
2022-08-11T23:25:34.672Z,18.87
2022-08-11T23:28:20.854Z,18.80
2022-08-11T23:31:07.572Z,18.70
2022-08-11T23:33:55.585Z,18.57
2022-08-11T23:36:46.775Z,18.50
2022-08-11T23:39:32.844Z,18.40
2022-08-11T23:42:18.035Z,18.30
2022-08-11T23:45:02.869Z,18.20
2022-08-11T23:47:50.093Z,18.12
2022-08-11T23:50:36.370Z,18.06
2022-08-11T23:53:21.520Z,18.05
2022-08-11T23:56:06.794Z,18.07
2022-08-11T23:58:53.200Z,18.04
